sensor_id;sensor_type;location;lat;lon;timestamp;pressure;altitude;pressure_sealevel;temperature;humidity
9523;BME280;63165;43.016;25.784;2022-11-20T00:01:30;99427.16;;;20.38;71.05
9523;BME280;63165;43.016;25.784;2022-11-20T00:03:58;99428.97;;;20.38;70.90
9523;BME280;63165;43.016;25.784;2022-11-20T00:06:27;99431.44;;;20.41;71.01
9523;BME280;63165;43.016;25.784;2022-11-20T00:08:56;99433.84;;;20.44;70.34
9523;BME280;63165;43.016;25.784;2022-11-20T00:11:26;99451.50;;;20.45;70.71
9523;BME280;63165;43.016;25.784;2022-11-20T00:13:55;99468.31;;;20.45;70.78
9523;BME280;63165;43.016;25.784;2022-11-20T00:16:25;99451.41;;;20.46;70.64
9523;BME280;63165;43.016;25.784;2022-11-20T00:18:53;99456.84;;;20.45;70.14
9523;BME280;63165;43.016;25.784;2022-11-20T00:21:21;99453.31;;;20.44;70.14
9523;BME280;63165;43.016;25.784;2022-11-20T00:23:52;99455.13;;;20.44;70.44
9523;BME280;63165;43.016;25.784;2022-11-20T00:26:21;99448.63;;;20.48;70.38
9523;BME280;63165;43.016;25.784;2022-11-20T00:28:50;99453.19;;;20.46;70.15
9523;BME280;63165;43.016;25.784;2022-11-20T00:31:18;99447.59;;;20.50;69.66
9523;BME280;63165;43.016;25.784;2022-11-20T00:33:46;99432.50;;;20.51;69.60
9523;BME280;63165;43.016;25.784;2022-11-20T00:36:15;99438.13;;;20.46;69.12
9523;BME280;63165;43.016;25.784;2022-11-20T00:38:42;99441.00;;;20.56;69.14
9523;BME280;63165;43.016;25.784;2022-11-20T00:41:13;99438.13;;;20.59;69.24
9523;BME280;63165;43.016;25.784;2022-11-20T00:43:40;99431.47;;;20.66;69.12
9523;BME280;63165;43.016;25.784;2022-11-20T00:46:09;99439.25;;;20.69;69.05
9523;BME280;63165;43.016;25.784;2022-11-20T00:48:36;99452.44;;;20.71;68.24
9523;BME280;63165;43.016;25.784;2022-11-20T00:51:04;99438.91;;;20.74;68.56
9523;BME280;63165;43.016;25.784;2022-11-20T00:53:31;99435.31;;;20.75;67.99
9523;BME280;63165;43.016;25.784;2022-11-20T00:56:00;99435.22;;;20.77;68.55
9523;BME280;63165;43.016;25.784;2022-11-20T00:58:31;99432.47;;;20.78;67.92
9523;BME280;63165;43.016;25.784;2022-11-20T01:01:02;99425.13;;;20.82;68.05
9523;BME280;63165;43.016;25.784;2022-11-20T01:03:31;99422.47;;;20.82;67.98
9523;BME280;63165;43.016;25.784;2022-11-20T01:06:02;99432.66;;;20.88;67.84
9523;BME280;63165;43.016;25.784;2022-11-20T01:08:30;99429.03;;;20.89;68.29
9523;BME280;63165;43.016;25.784;2022-11-20T01:11:01;99429.91;;;20.89;67.57
9523;BME280;63165;43.016;25.784;2022-11-20T01:13:30;99422.88;;;20.88;68.02
9523;BME280;63165;43.016;25.784;2022-11-20T01:16:04;99429.78;;;20.91;67.43
9523;BME280;63165;43.016;25.784;2022-11-20T01:18:32;99433.31;;;20.91;67.25
9523;BME280;63165;43.016;25.784;2022-11-20T01:21:04;99426.16;;;20.92;67.51
9523;BME280;63165;43.016;25.784;2022-11-20T01:23:32;99435.72;;;20.94;67.17
9523;BME280;63165;43.016;25.784;2022-11-20T01:26:01;99432.13;;;20.96;67.59
9523;BME280;63165;43.016;25.784;2022-11-20T01:28:30;99427.13;;;20.91;67.58
9523;BME280;63165;43.016;25.784;2022-11-20T01:30:58;99420.13;;;20.90;67.42
9523;BME280;63165;43.016;25.784;2022-11-20T01:33:25;99425.44;;;20.90;66.76
9523;BME280;63165;43.016;25.784;2022-11-20T01:35:53;99436.16;;;20.88;67.38
9523;BME280;63165;43.016;25.784;2022-11-20T01:38:29;99430.75;;;20.90;67.26
9523;BME280;63165;43.016;25.784;2022-11-20T01:40:56;99420.94;;;20.90;66.56
9523;BME280;63165;43.016;25.784;2022-11-20T01:43:24;99398.75;;;20.91;67.00
9523;BME280;63165;43.016;25.784;2022-11-20T01:46:06;99406.72;;;20.91;66.42
9523;BME280;63165;43.016;25.784;2022-11-20T01:48:38;99397.03;;;20.90;66.54
9523;BME280;63165;43.016;25.784;2022-11-20T01:51:13;99381.06;;;20.90;66.27
9523;BME280;63165;43.016;25.784;2022-11-20T01:53:42;99373.00;;;20.92;66.45
9523;BME280;63165;43.016;25.784;2022-11-20T01:56:12;99374.81;;;20.91;66.89
9523;BME280;63165;43.016;25.784;2022-11-20T01:58:43;99380.22;;;20.90;66.88
9523;BME280;63165;43.016;25.784;2022-11-20T02:01:13;99387.38;;;20.89;67.16
9523;BME280;63165;43.016;25.784;2022-11-20T02:03:41;99389.47;;;20.84;66.71
9523;BME280;63165;43.016;25.784;2022-11-20T02:06:14;99390.66;;;20.80;67.43
9523;BME280;63165;43.016;25.784;2022-11-20T02:08:43;99391.72;;;20.78;67.64
9523;BME280;63165;43.016;25.784;2022-11-20T02:11:10;99398.84;;;20.77;68.01
9523;BME280;63165;43.016;25.784;2022-11-20T02:13:38;99398.19;;;20.73;68.22
9523;BME280;63165;43.016;25.784;2022-11-20T02:16:14;99401.06;;;20.70;68.04
9523;BME280;63165;43.016;25.784;2022-11-20T02:18:42;99397.03;;;20.65;68.34
9523;BME280;63165;43.016;25.784;2022-11-20T02:21:17;99409.88;;;20.58;68.59
9523;BME280;63165;43.016;25.784;2022-11-20T02:24:11;99407.94;;;20.47;69.37
9523;BME280;63165;43.016;25.784;2022-11-20T02:26:47;99415.59;;;20.39;69.52
9523;BME280;63165;43.016;25.784;2022-11-20T02:29:19;99405.34;;;20.33;69.49
9523;BME280;63165;43.016;25.784;2022-11-20T02:31:49;99412.25;;;20.23;69.65
9523;BME280;63165;43.016;25.784;2022-11-20T02:34:16;99410.00;;;20.16;70.48
9523;BME280;63165;43.016;25.784;2022-11-20T02:36:44;99408.81;;;20.08;70.49
9523;BME280;63165;43.016;25.784;2022-11-20T02:39:15;99407.59;;;19.99;70.72
9523;BME280;63165;43.016;25.784;2022-11-20T02:41:43;99414.47;;;19.89;70.95
9523;BME280;63165;43.016;25.784;2022-11-20T02:44:11;99402.66;;;19.80;71.71
9523;BME280;63165;43.016;25.784;2022-11-20T02:46:38;99400.88;;;19.66;71.95
9523;BME280;63165;43.016;25.784;2022-11-20T02:49:05;99387.34;;;19.56;72.67
9523;BME280;63165;43.016;25.784;2022-11-20T02:51:33;99387.19;;;19.45;72.34
9523;BME280;63165;43.016;25.784;2022-11-20T02:54:00;99381.69;;;19.34;73.33
9523;BME280;63165;43.016;25.784;2022-11-20T02:56:29;99391.09;;;19.25;73.86
9523;BME280;63165;43.016;25.784;2022-11-20T02:58:56;99383.16;;;19.25;74.63
9523;BME280;63165;43.016;25.784;2022-11-20T03:01:23;99380.94;;;19.32;74.52
9523;BME280;63165;43.016;25.784;2022-11-20T03:03:50;99374.41;;;19.37;74.00
9523;BME280;63165;43.016;25.784;2022-11-20T03:06:20;99381.25;;;19.42;73.80
9523;BME280;63165;43.016;25.784;2022-11-20T03:08:47;99368.50;;;19.47;74.20
9523;BME280;63165;43.016;25.784;2022-11-20T03:11:14;99369.06;;;19.52;73.70
9523;BME280;63165;43.016;25.784;2022-11-20T03:13:43;99359.28;;;19.52;73.09
9523;BME280;63165;43.016;25.784;2022-11-20T03:16:12;99363.25;;;19.59;73.10
9523;BME280;63165;43.016;25.784;2022-11-20T03:18:41;99358.59;;;19.63;72.74
9523;BME280;63165;43.016;25.784;2022-11-20T03:21:10;99357.16;;;19.72;72.48
9523;BME280;63165;43.016;25.784;2022-11-20T03:23:38;99352.13;;;19.82;71.85
9523;BME280;63165;43.016;25.784;2022-11-20T03:26:10;99344.50;;;19.90;71.64
9523;BME280;63165;43.016;25.784;2022-11-20T03:28:38;99335.06;;;19.98;71.12
9523;BME280;63165;43.016;25.784;2022-11-20T03:31:08;99334.56;;;20.06;71.05
9523;BME280;63165;43.016;25.784;2022-11-20T03:33:36;99343.06;;;20.11;70.92
9523;BME280;63165;43.016;25.784;2022-11-20T03:36:04;99348.06;;;20.16;70.13
9523;BME280;63165;43.016;25.784;2022-11-20T03:38:31;99346.03;;;20.20;70.36
9523;BME280;63165;43.016;25.784;2022-11-20T03:41:00;99346.69;;;20.23;70.19
9523;BME280;63165;43.016;25.784;2022-11-20T03:43:27;99331.19;;;20.30;69.46
9523;BME280;63165;43.016;25.784;2022-11-20T03:45:54;99335.88;;;20.39;68.65
9523;BME280;63165;43.016;25.784;2022-11-20T03:48:23;99335.97;;;20.38;68.96
9523;BME280;63165;43.016;25.784;2022-11-20T03:50:51;99337.66;;;20.39;68.53
9523;BME280;63165;43.016;25.784;2022-11-20T03:53:19;99326.09;;;20.40;68.91
9523;BME280;63165;43.016;25.784;2022-11-20T03:55:50;99340.13;;;20.42;68.41
9523;BME280;63165;43.016;25.784;2022-11-20T03:58:18;99341.84;;;20.43;68.63
9523;BME280;63165;43.016;25.784;2022-11-20T04:00:45;99354.03;;;20.45;67.72
9523;BME280;63165;43.016;25.784;2022-11-20T04:03:13;99356.59;;;20.47;68.31
9523;BME280;63165;43.016;25.784;2022-11-20T04:05:41;99328.22;;;20.34;67.70
9523;BME280;63165;43.016;25.784;2022-11-20T04:08:09;99347.00;;;20.44;67.73
9523;BME280;63165;43.016;25.784;2022-11-20T04:10:36;99349.69;;;20.44;67.56
9523;BME280;63165;43.016;25.784;2022-11-20T04:13:03;99354.88;;;20.46;67.39
9523;BME280;63165;43.016;25.784;2022-11-20T04:15:30;99365.53;;;20.46;67.36
9523;BME280;63165;43.016;25.784;2022-11-20T04:17:58;99355.63;;;20.48;67.85
9523;BME280;63165;43.016;25.784;2022-11-20T04:20:25;99366.06;;;20.51;67.34
9523;BME280;63165;43.016;25.784;2022-11-20T04:22:54;99365.13;;;20.52;67.34
9523;BME280;63165;43.016;25.784;2022-11-20T04:25:21;99371.38;;;20.51;67.18
9523;BME280;63165;43.016;25.784;2022-11-20T04:27:48;99369.69;;;20.50;66.70
9523;BME280;63165;43.016;25.784;2022-11-20T04:30:16;99376.03;;;20.47;66.85
9523;BME280;63165;43.016;25.784;2022-11-20T04:32:43;99367.34;;;20.45;67.15
9523;BME280;63165;43.016;25.784;2022-11-20T04:35:10;99374.47;;;20.45;67.14
9523;BME280;63165;43.016;25.784;2022-11-20T04:37:37;99365.53;;;20.46;66.76
9523;BME280;63165;43.016;25.784;2022-11-20T04:40:07;99371.72;;;20.46;66.24
9523;BME280;63165;43.016;25.784;2022-11-20T04:42:35;99356.81;;;20.44;66.26
9523;BME280;63165;43.016;25.784;2022-11-20T04:45:02;99358.19;;;20.49;66.13
9523;BME280;63165;43.016;25.784;2022-11-20T04:47:29;99364.38;;;20.50;65.58
9523;BME280;63165;43.016;25.784;2022-11-20T04:49:56;99356.28;;;20.51;65.44
9523;BME280;63165;43.016;25.784;2022-11-20T04:52:23;99356.06;;;20.54;65.32
9523;BME280;63165;43.016;25.784;2022-11-20T04:54:51;99350.00;;;20.52;64.89
9523;BME280;63165;43.016;25.784;2022-11-20T04:57:21;99353.50;;;20.53;65.02
9523;BME280;63165;43.016;25.784;2022-11-20T04:59:48;99347.16;;;20.55;64.50
9523;BME280;63165;43.016;25.784;2022-11-20T05:02:16;99343.25;;;20.61;64.55
9523;BME280;63165;43.016;25.784;2022-11-20T05:04:43;99352.06;;;20.62;64.04
9523;BME280;63165;43.016;25.784;2022-11-20T05:07:11;99355.25;;;20.67;63.78
9523;BME280;63165;43.016;25.784;2022-11-20T05:09:38;99359.72;;;20.66;64.00
9523;BME280;63165;43.016;25.784;2022-11-20T05:12:07;99353.53;;;20.66;64.38
9523;BME280;63165;43.016;25.784;2022-11-20T05:14:36;99358.03;;;20.65;64.28
9523;BME280;63165;43.016;25.784;2022-11-20T05:17:03;99356.22;;;20.66;64.06
9523;BME280;63165;43.016;25.784;2022-11-20T05:19:30;99350.06;;;20.65;64.05
9523;BME280;63165;43.016;25.784;2022-11-20T05:21:58;99355.38;;;20.65;63.48
9523;BME280;63165;43.016;25.784;2022-11-20T05:24:25;99353.66;;;20.64;63.58
9523;BME280;63165;43.016;25.784;2022-11-20T05:26:53;99353.66;;;20.64;63.93
9523;BME280;63165;43.016;25.784;2022-11-20T05:29:20;99363.66;;;20.61;63.84
9523;BME280;63165;43.016;25.784;2022-11-20T05:31:49;99356.72;;;20.58;64.23
9523;BME280;63165;43.016;25.784;2022-11-20T05:34:16;99368.41;;;20.55;64.43
9523;BME280;63165;43.016;25.784;2022-11-20T05:36:43;99367.63;;;20.53;64.84
9523;BME280;63165;43.016;25.784;2022-11-20T05:39:11;99375.00;;;20.50;64.84
9523;BME280;63165;43.016;25.784;2022-11-20T05:41:38;99386.69;;;20.47;65.24
9523;BME280;63165;43.016;25.784;2022-11-20T05:44:05;99370.94;;;20.44;65.05
9523;BME280;63165;43.016;25.784;2022-11-20T05:46:33;99377.41;;;20.40;64.86
9523;BME280;63165;43.016;25.784;2022-11-20T05:49:01;99378.59;;;20.36;65.35
9523;BME280;63165;43.016;25.784;2022-11-20T05:51:29;99374.66;;;20.42;64.85
9523;BME280;63165;43.016;25.784;2022-11-20T05:53:57;99381.78;;;20.41;64.69
9523;BME280;63165;43.016;25.784;2022-11-20T05:56:24;99389.66;;;20.43;65.49
9523;BME280;63165;43.016;25.784;2022-11-20T05:58:52;99387.19;;;20.40;65.50
9523;BME280;63165;43.016;25.784;2022-11-20T06:01:21;99394.53;;;20.36;65.82
9523;BME280;63165;43.016;25.784;2022-11-20T06:03:49;99394.34;;;20.39;65.21
9523;BME280;63165;43.016;25.784;2022-11-20T06:06:19;99395.38;;;20.36;65.98
9523;BME280;63165;43.016;25.784;2022-11-20T06:08:47;99394.84;;;20.31;65.76
9523;BME280;63165;43.016;25.784;2022-11-20T06:11:16;99396.97;;;20.26;65.71
9523;BME280;63165;43.016;25.784;2022-11-20T06:13:43;99391.00;;;20.23;65.75
9523;BME280;63165;43.016;25.784;2022-11-20T06:16:12;99391.94;;;20.22;65.89
9523;BME280;63165;43.016;25.784;2022-11-20T06:18:40;99407.03;;;20.21;66.45
9523;BME280;63165;43.016;25.784;2022-11-20T06:21:09;99400.03;;;20.20;66.48
9523;BME280;63165;43.016;25.784;2022-11-20T06:23:39;99409.28;;;20.27;65.75
9523;BME280;63165;43.016;25.784;2022-11-20T06:26:07;99408.13;;;20.31;65.88
9523;BME280;63165;43.016;25.784;2022-11-20T06:28:36;99409.06;;;20.30;65.78
9523;BME280;63165;43.016;25.784;2022-11-20T06:31:04;99413.31;;;20.33;66.37
9523;BME280;63165;43.016;25.784;2022-11-20T06:33:32;99409.06;;;20.30;65.99
9523;BME280;63165;43.016;25.784;2022-11-20T06:36:00;99424.47;;;20.25;66.38
9523;BME280;63165;43.016;25.784;2022-11-20T06:38:28;99406.41;;;20.30;65.86
9523;BME280;63165;43.016;25.784;2022-11-20T06:40:57;99416.09;;;20.31;65.95
9523;BME280;63165;43.016;25.784;2022-11-20T06:43:24;99398.03;;;20.36;66.33
9523;BME280;63165;43.016;25.784;2022-11-20T06:45:53;99409.84;;;20.45;66.43
9523;BME280;63165;43.016;25.784;2022-11-20T06:48:22;99405.38;;;20.46;66.02
9523;BME280;63165;43.016;25.784;2022-11-20T06:50:50;99409.56;;;20.50;65.99
9523;BME280;63165;43.016;25.784;2022-11-20T06:53:18;99428.38;;;20.60;65.03
9523;BME280;63165;43.016;25.784;2022-11-20T06:55:47;99423.41;;;20.68;64.54
9523;BME280;63165;43.016;25.784;2022-11-20T06:58:17;99443.41;;;20.73;64.81
9523;BME280;63165;43.016;25.784;2022-11-20T07:00:44;99442.22;;;20.78;64.96
9523;BME280;63165;43.016;25.784;2022-11-20T07:03:12;99438.28;;;20.83;65.15
9523;BME280;63165;43.016;25.784;2022-11-20T07:05:40;99444.16;;;20.88;64.72
9523;BME280;63165;43.016;25.784;2022-11-20T07:08:07;99461.69;;;20.91;65.31
9523;BME280;63165;43.016;25.784;2022-11-20T07:10:35;99455.00;;;20.98;63.76
9523;BME280;63165;43.016;25.784;2022-11-20T07:13:03;99476.81;;;21.03;63.54
9523;BME280;63165;43.016;25.784;2022-11-20T07:15:32;99475.63;;;21.07;62.71
9523;BME280;63165;43.016;25.784;2022-11-20T07:17:59;99497.34;;;21.14;63.02
9523;BME280;63165;43.016;25.784;2022-11-20T07:20:26;99495.00;;;21.09;62.56
9523;BME280;63165;43.016;25.784;2022-11-20T07:22:56;99518.81;;;20.98;61.13
9523;BME280;63165;43.016;25.784;2022-11-20T07:25:24;99521.56;;;20.71;60.03
9523;BME280;63165;43.016;25.784;2022-11-20T07:27:52;99507.59;;;20.40;59.04
9523;BME280;63165;43.016;25.784;2022-11-20T07:30:19;99516.47;;;19.99;59.59
9523;BME280;63165;43.016;25.784;2022-11-20T07:32:50;99526.28;;;19.55;59.87
9523;BME280;63165;43.016;25.784;2022-11-20T07:35:18;99553.66;;;19.27;60.59
9523;BME280;63165;43.016;25.784;2022-11-20T07:37:45;99565.53;;;19.06;61.63
9523;BME280;63165;43.016;25.784;2022-11-20T07:40:12;99562.09;;;18.73;62.06
9523;BME280;63165;43.016;25.784;2022-11-20T07:42:47;99575.56;;;18.54;62.30
9523;BME280;63165;43.016;25.784;2022-11-20T07:45:14;99584.06;;;18.29;63.05
9523;BME280;63165;43.016;25.784;2022-11-20T07:47:41;99609.00;;;18.09;63.67
9523;BME280;63165;43.016;25.784;2022-11-20T07:50:11;99609.41;;;17.84;63.85
9523;BME280;63165;43.016;25.784;2022-11-20T07:52:39;99608.78;;;17.63;64.80
9523;BME280;63165;43.016;25.784;2022-11-20T07:55:07;99614.25;;;17.42;64.80
9523;BME280;63165;43.016;25.784;2022-11-20T07:57:35;99612.81;;;17.19;65.97
9523;BME280;63165;43.016;25.784;2022-11-20T08:00:03;99608.06;;;16.91;66.40
9523;BME280;63165;43.016;25.784;2022-11-20T08:02:31;99617.41;;;16.79;66.99
9523;BME280;63165;43.016;25.784;2022-11-20T08:04:58;99620.31;;;16.56;68.09
9523;BME280;63165;43.016;25.784;2022-11-20T08:07:27;99631.97;;;16.52;68.56
9523;BME280;63165;43.016;25.784;2022-11-20T08:09:55;99637.69;;;16.42;69.66
9523;BME280;63165;43.016;25.784;2022-11-20T08:12:22;99642.69;;;16.29;70.18
9523;BME280;63165;43.016;25.784;2022-11-20T08:15:08;99663.22;;;16.23;70.84
9523;BME280;63165;43.016;25.784;2022-11-20T08:17:36;99672.88;;;16.24;71.62
9523;BME280;63165;43.016;25.784;2022-11-20T08:20:04;99677.97;;;16.27;71.89
9523;BME280;63165;43.016;25.784;2022-11-20T08:22:33;99673.78;;;16.23;71.39
9523;BME280;63165;43.016;25.784;2022-11-20T08:25:00;99666.56;;;16.07;71.33
9523;BME280;63165;43.016;25.784;2022-11-20T08:27:27;99672.25;;;15.98;72.23
9523;BME280;63165;43.016;25.784;2022-11-20T08:29:54;99676.94;;;15.91;73.00
9523;BME280;63165;43.016;25.784;2022-11-20T08:32:21;99689.75;;;15.80;72.90
9523;BME280;63165;43.016;25.784;2022-11-20T08:34:49;99686.78;;;15.67;73.51
9523;BME280;63165;43.016;25.784;2022-11-20T08:37:16;99696.84;;;15.58;74.01
9523;BME280;63165;43.016;25.784;2022-11-20T08:39:44;99701.78;;;15.45;73.82
9523;BME280;63165;43.016;25.784;2022-11-20T08:42:12;99681.97;;;15.36;74.25
9523;BME280;63165;43.016;25.784;2022-11-20T08:44:39;99674.38;;;15.28;75.36
9523;BME280;63165;43.016;25.784;2022-11-20T08:47:06;99672.31;;;15.14;75.23
9523;BME280;63165;43.016;25.784;2022-11-20T08:49:33;99685.75;;;15.08;75.98
9523;BME280;63165;43.016;25.784;2022-11-20T08:52:01;99687.47;;;15.09;75.34
9523;BME280;63165;43.016;25.784;2022-11-20T08:54:28;99678.28;;;14.98;75.51
9523;BME280;63165;43.016;25.784;2022-11-20T08:56:57;99672.59;;;14.86;76.39
9523;BME280;63165;43.016;25.784;2022-11-20T08:59:25;99658.81;;;14.80;76.38
9523;BME280;63165;43.016;25.784;2022-11-20T09:01:52;99648.72;;;14.69;76.57
9523;BME280;63165;43.016;25.784;2022-11-20T09:04:19;99651.72;;;14.60;77.14
9523;BME280;63165;43.016;25.784;2022-11-20T09:06:47;99641.63;;;14.47;77.16
9523;BME280;63165;43.016;25.784;2022-11-20T09:09:16;99659.84;;;14.30;77.47
9523;BME280;63165;43.016;25.784;2022-11-20T09:11:44;99656.06;;;14.13;78.77
9523;BME280;63165;43.016;25.784;2022-11-20T09:14:13;99651.84;;;14.09;79.68
9523;BME280;63165;43.016;25.784;2022-11-20T09:16:41;99657.97;;;14.10;79.67
9523;BME280;63165;43.016;25.784;2022-11-20T09:19:08;99657.16;;;14.08;79.99
9523;BME280;63165;43.016;25.784;2022-11-20T09:21:35;99658.25;;;14.02;80.79
9523;BME280;63165;43.016;25.784;2022-11-20T09:24:04;99640.09;;;13.96;80.20
9523;BME280;63165;43.016;25.784;2022-11-20T09:26:32;99628.88;;;13.91;80.67
9523;BME280;63165;43.016;25.784;2022-11-20T09:28:59;99642.19;;;13.86;80.58
9523;BME280;63165;43.016;25.784;2022-11-20T09:31:29;99624.88;;;13.81;81.17
9523;BME280;63165;43.016;25.784;2022-11-20T09:33:56;99632.22;;;13.71;80.97
9523;BME280;63165;43.016;25.784;2022-11-20T09:36:28;99634.94;;;13.69;81.59
9523;BME280;63165;43.016;25.784;2022-11-20T09:38:56;99637.31;;;13.75;82.17
9523;BME280;63165;43.016;25.784;2022-11-20T09:41:53;99611.47;;;13.63;82.85
9523;BME280;63165;43.016;25.784;2022-11-20T09:44:40;99608.00;;;13.63;82.08
9523;BME280;63165;43.016;25.784;2022-11-20T09:47:21;99597.56;;;13.59;82.25
9523;BME280;63165;43.016;25.784;2022-11-20T09:49:59;99609.13;;;13.55;82.79
9523;BME280;63165;43.016;25.784;2022-11-20T09:52:36;99603.13;;;13.52;83.66
9523;BME280;63165;43.016;25.784;2022-11-20T09:55:08;99598.59;;;13.55;83.91
9523;BME280;63165;43.016;25.784;2022-11-20T09:57:38;99601.19;;;13.57;83.91
9523;BME280;63165;43.016;25.784;2022-11-20T10:00:10;99600.16;;;13.61;84.15
9523;BME280;63165;43.016;25.784;2022-11-20T10:02:43;99599.06;;;13.67;84.76
9523;BME280;63165;43.016;25.784;2022-11-20T10:05:17;99592.06;;;13.67;84.57
9523;BME280;63165;43.016;25.784;2022-11-20T10:07:50;99588.50;;;13.68;84.56
9523;BME280;63165;43.016;25.784;2022-11-20T10:10:30;99598.97;;;13.70;84.46
9523;BME280;63165;43.016;25.784;2022-11-20T10:13:09;99593.66;;;13.71;84.09
9523;BME280;63165;43.016;25.784;2022-11-20T10:15:49;99586.72;;;13.69;84.04
9523;BME280;63165;43.016;25.784;2022-11-20T10:18:34;99593.72;;;13.70;84.07
9523;BME280;63165;43.016;25.784;2022-11-20T10:21:11;99598.78;;;13.74;83.71
9523;BME280;63165;43.016;25.784;2022-11-20T10:24:08;99573.72;;;13.66;84.50
9523;BME280;63165;43.016;25.784;2022-11-20T10:26:51;99589.25;;;13.72;84.36
9523;BME280;63165;43.016;25.784;2022-11-20T10:29:33;99578.69;;;13.73;84.60
9523;BME280;63165;43.016;25.784;2022-11-20T10:32:57;99590.97;;;13.73;84.08
9523;BME280;63165;43.016;25.784;2022-11-20T10:35:34;99581.41;;;13.70;84.31
9523;BME280;63165;43.016;25.784;2022-11-20T10:38:05;99593.66;;;13.71;84.52
9523;BME280;63165;43.016;25.784;2022-11-20T10:40:51;99588.28;;;13.74;83.87
9523;BME280;63165;43.016;25.784;2022-11-20T10:43:35;99584.84;;;13.72;84.37
9523;BME280;63165;43.016;25.784;2022-11-20T10:46:06;99591.41;;;13.61;84.36
9523;BME280;63165;43.016;25.784;2022-11-20T10:48:36;99574.47;;;13.69;84.56
9523;BME280;63165;43.016;25.784;2022-11-20T10:51:14;99570.06;;;13.70;84.42
9523;BME280;63165;43.016;25.784;2022-11-20T10:53:54;99568.28;;;13.70;84.94
9523;BME280;63165;43.016;25.784;2022-11-20T10:56:27;99569.88;;;13.74;85.08
9523;BME280;63165;43.016;25.784;2022-11-20T11:01:52;99569.81;;;13.76;84.89
9523;BME280;63165;43.016;25.784;2022-11-20T11:04:32;99570.00;;;13.71;85.09
9523;BME280;63165;43.016;25.784;2022-11-20T11:07:07;99560.03;;;13.79;85.20
9523;BME280;63165;43.016;25.784;2022-11-20T11:09:41;99562.44;;;13.86;85.97
9523;BME280;63165;43.016;25.784;2022-11-20T11:12:10;99550.91;;;13.90;85.38
9523;BME280;63165;43.016;25.784;2022-11-20T11:14:48;99538.50;;;13.93;84.98
9523;BME280;63165;43.016;25.784;2022-11-20T11:17:24;99523.66;;;13.91;84.46
9523;BME280;63165;43.016;25.784;2022-11-20T11:20:14;99532.59;;;13.87;84.69
9523;BME280;63165;43.016;25.784;2022-11-20T11:22:46;99529.50;;;13.99;84.44
9523;BME280;63165;43.016;25.784;2022-11-20T11:25:23;99537.94;;;14.07;84.77
9523;BME280;63165;43.016;25.784;2022-11-20T11:27:51;99516.16;;;14.04;84.96
9523;BME280;63165;43.016;25.784;2022-11-20T11:30:21;99527.31;;;14.10;84.90
9523;BME280;63165;43.016;25.784;2022-11-20T11:32:49;99517.59;;;14.12;84.66
9523;BME280;63165;43.016;25.784;2022-11-20T11:35:21;99513.97;;;14.15;84.79
9523;BME280;63165;43.016;25.784;2022-11-20T11:37:52;99517.38;;;14.17;84.80
9523;BME280;63165;43.016;25.784;2022-11-20T11:40:21;99506.69;;;14.22;84.40
9523;BME280;63165;43.016;25.784;2022-11-20T11:42:55;99523.28;;;14.24;83.66
9523;BME280;63165;43.016;25.784;2022-11-20T11:45:24;99525.84;;;14.25;83.88
9523;BME280;63165;43.016;25.784;2022-11-20T11:47:50;99522.16;;;14.29;84.18
9523;BME280;63165;43.016;25.784;2022-11-20T11:50:20;99523.75;;;14.33;84.32
9523;BME280;63165;43.016;25.784;2022-11-20T11:53:08;99525.34;;;14.37;83.73
9523;BME280;63165;43.016;25.784;2022-11-20T11:55:40;99517.31;;;14.41;83.52
9523;BME280;63165;43.016;25.784;2022-11-20T11:58:19;99527.91;;;14.39;83.62
9523;BME280;63165;43.016;25.784;2022-11-20T12:00:56;99524.44;;;14.39;83.33
9523;BME280;63165;43.016;25.784;2022-11-20T12:03:28;99527.06;;;14.39;82.95
9523;BME280;63165;43.016;25.784;2022-11-20T12:05:58;99532.38;;;14.37;82.93
9523;BME280;63165;43.016;25.784;2022-11-20T12:08:43;99533.13;;;14.41;83.41
9523;BME280;63165;43.016;25.784;2022-11-20T12:11:13;99522.16;;;14.29;82.88
9523;BME280;63165;43.016;25.784;2022-11-20T12:13:48;99525.97;;;14.22;83.52
9523;BME280;63165;43.016;25.784;2022-11-20T12:16:19;99544.00;;;14.31;83.03
9523;BME280;63165;43.016;25.784;2022-11-20T12:18:48;99534.38;;;14.30;82.84
9523;BME280;63165;43.016;25.784;2022-11-20T12:21:19;99537.22;;;14.26;82.93
9523;BME280;63165;43.016;25.784;2022-11-20T12:26:58;99563.84;;;14.40;83.86
9523;BME280;63165;43.016;25.784;2022-11-20T12:29:37;99582.28;;;14.40;83.82
9523;BME280;63165;43.016;25.784;2022-11-20T12:32:32;99595.44;;;14.40;83.85
9523;BME280;63165;43.016;25.784;2022-11-20T12:35:07;99581.00;;;14.27;83.97
9523;BME280;63165;43.016;25.784;2022-11-20T12:37:46;99598.13;;;14.39;83.97
9523;BME280;63165;43.016;25.784;2022-11-20T12:40:26;99603.25;;;14.42;83.67
9523;BME280;63165;43.016;25.784;2022-11-20T12:43:04;99601.59;;;14.39;84.39
9523;BME280;63165;43.016;25.784;2022-11-20T12:46:10;99596.81;;;14.27;83.80
9523;BME280;63165;43.016;25.784;2022-11-20T12:49:10;99610.59;;;14.33;84.93
9523;BME280;63165;43.016;25.784;2022-11-20T12:52:13;99585.38;;;14.28;84.30
9523;BME280;63165;43.016;25.784;2022-11-20T12:54:52;99597.38;;;14.35;84.01
9523;BME280;63165;43.016;25.784;2022-11-20T12:57:32;99593.81;;;14.36;84.39
9523;BME280;63165;43.016;25.784;2022-11-20T13:00:10;99589.34;;;14.38;84.58
9523;BME280;63165;43.016;25.784;2022-11-20T13:05:31;99579.56;;;14.42;84.09
9523;BME280;63165;43.016;25.784;2022-11-20T13:08:02;99586.53;;;14.43;83.75
9523;BME280;63165;43.016;25.784;2022-11-20T13:10:35;99579.00;;;14.33;83.45
9523;BME280;63165;43.016;25.784;2022-11-20T13:13:12;99579.00;;;14.33;83.40
9523;BME280;63165;43.016;25.784;2022-11-20T13:15:48;99583.59;;;14.28;83.39
9523;BME280;63165;43.016;25.784;2022-11-20T13:18:18;99593.53;;;14.22;82.95
9523;BME280;63165;43.016;25.784;2022-11-20T13:20:45;99596.16;;;14.22;82.61
9523;BME280;63165;43.016;25.784;2022-11-20T13:23:23;99583.94;;;14.19;83.00
9523;BME280;63165;43.016;25.784;2022-11-20T13:26:03;99579.69;;;14.16;83.26
9523;BME280;63165;43.016;25.784;2022-11-20T13:28:31;99586.59;;;14.19;83.43